Portada
METAR-TAF:

METAR-TAF

Aeropuertos :

Aeropuerto de Alicante-Elche

Alicante, España

latitud: 38-17N, longitud: 000-33W, altitud: 43 m

Observación

El informe se hizo hace 16 minutos, a las 19:00 UTC
Viento 4 kt del este-noreste, variando entre norte-noreste y este
Temperatura 21°C
Humedad 69%
Presión 1026 hPa
Visibilidad 10 km o más
Escasas nubes a una altura de 2400 ft

METAR: LEAL 191900Z 06004KT 020V080 9999 FEW024 21/15 Q1026 NOSIG

Hora: 21:16 (19:16 UTC)

Pronóstico

El informe se hizo hace 2 horas y 16 minutos, a las 17:00 UTC
Pronóstico válido del 19 a las 18 UTC al 20 a las 18 UTC
Viento 5 kt con dirección variable
Visibilidad 10 km o más
Escasas nubes a una altura de 2500 ft

TAF: LEAL 191700Z 1918/2018 VRB05KT 9999 FEW025 TX25/2012Z TN16/2006Z

Observaciones y pronósticos meteorológicos de más de 4000 aeropuertos (mensajes METAR y TAF).

Los puntos amarillos y rojos representan las estaciones disponibles.

Ponga el ratón en el punto deseado para ver el nombre de la estación.

Haga clic para ver las observaciones y los pronósticos meteorológicos.

Para cambiar el mapa : haga clic en los botones verdes con una cruz de color negro para hacer un zoom, en el botón verde con un guión para alejar o en las flechas verdes para mapas adyacentes.


METAR-TAF: